Time;durP1;ratioP1;P1;durP2;ratioP2;P2;SDS_P1;SDS_P2;PMS_P1;PMS_P2;Temp;Humidity;BMP_temperature;BMP_pressure;BME280_temperature;BME280_humidity;BME280_pressure;Samples;Min_cycle;Max_cycle;Signal;HPM_P1;HPM_P2
2022/12/03 00:00:12;;;;;;;5.53;2.27;;;;;;;;;;5062799;27;86872;-60
2022/12/03 00:02:41;;;;;;;4.97;2.27;;;;;;;;;;5061520;27;89945;-60
2022/12/03 00:05:11;;;;;;;3.93;2.37;;;;;;;;;;5062160;27;89801;-60
2022/12/03 00:07:39;;;;;;;3.80;2.70;;;;;;;;;;5061987;27;87064;-60
2022/12/03 00:10:08;;;;;;;6.00;3.53;;;;;;;;;;5062598;27;87116;-59
2022/12/03 00:12:36;;;;;;;2.87;2.57;;;;;;;;;;5062590;27;88971;-60
2022/12/03 00:15:05;;;;;;;5.37;2.60;;;;;;;;;;5062064;27;88642;-60
2022/12/03 00:17:33;;;;;;;4.57;2.97;;;;;;;;;;5062180;27;87119;-60
2022/12/03 00:20:01;;;;;;;3.70;2.27;;;;;;;;;;5062404;27;86417;-60
2022/12/03 00:22:31;;;;;;;5.10;2.23;;;;;;;;;;5062438;27;88944;-60
2022/12/03 00:24:59;;;;;;;4.60;2.27;;;;;;;;;;5062432;27;88856;-60
2022/12/03 00:27:27;;;;;;;3.30;2.00;;;;;;;;;;5061533;27;88092;-59
2022/12/03 00:29:56;;;;;;;3.47;2.10;;;;;;;;;;5062513;27;86977;-60
2022/12/03 00:32:24;;;;;;;3.43;2.23;;;;;;;;;;5061628;27;87926;-60
2022/12/03 00:34:52;;;;;;;3.23;2.10;;;;;;;;;;5061253;27;87559;-60
2022/12/03 00:37:21;;;;;;;5.13;2.53;;;;;;;;;;5061552;27;87280;-59
2022/12/03 00:39:53;;;;;;;3.63;1.57;;;;;;;;;;5062433;27;86910;-60
2022/12/03 00:42:22;;;;;;;5.33;2.00;;;;;;;;;;5061983;27;88181;-60
2022/12/03 00:44:50;;;;;;;5.17;2.27;;;;;;;;;;5061877;27;88531;-60
2022/12/03 00:47:19;;;;;;;3.00;1.73;;;;;;;;;;5062573;27;87092;-60
2022/12/03 00:49:47;;;;;;;2.23;1.93;;;;;;;;;;5062000;27;87049;-60
2022/12/03 00:52:15;;;;;;;3.33;2.67;;;;;;;;;;5061413;27;88868;-60
2022/12/03 00:54:44;;;;;;;4.30;2.30;;;;;;;;;;5061752;27;87916;-59
2022/12/03 00:57:13;;;;;;;4.10;1.77;;;;;;;;;;5062413;27;87149;-59
2022/12/03 00:59:42;;;;;;;3.67;2.03;;;;;;;;;;5062029;27;87004;-59
2022/12/03 01:02:10;;;;;;;4.37;3.13;;;;;;;;;;5061070;27;87957;-60
2022/12/03 01:04:38;;;;;;;4.53;2.73;;;;;;;;;;5061522;27;87710;-60
2022/12/03 01:07:07;;;;;;;4.97;2.50;;;;;;;;;;5062015;27;86931;-60
2022/12/03 01:09:35;;;;;;;2.60;2.00;;;;;;;;;;5062148;27;86172;-60
2022/12/03 01:12:03;;;;;;;3.37;2.30;;;;;;;;;;5064973;27;87768;-60
2022/12/03 01:14:33;;;;;;;7.87;2.83;;;;;;;;;;5064693;27;89124;-60
2022/12/03 01:17:01;;;;;;;5.60;2.40;;;;;;;;;;5065222;27;88422;-60
2022/12/03 01:19:29;;;;;;;4.10;1.83;;;;;;;;;;5065784;27;87072;-60
2022/12/03 01:21:58;;;;;;;3.60;1.90;;;;;;;;;;5064884;27;88064;-59
2022/12/03 01:24:26;;;;;;;4.03;2.03;;;;;;;;;;5064857;27;87826;-59
2022/12/03 01:26:55;;;;;;;3.37;2.90;;;;;;;;;;5064944;27;87092;-60
2022/12/03 01:29:23;;;;;;;5.33;2.40;;;;;;;;;;5064963;27;87084;-60
2022/12/03 01:34:39;;;;;;;4.03;2.23;;;;;;;;;;5064771;27;87414;-60
2022/12/03 01:37:07;;;;;;;3.80;1.97;;;;;;;;;;5065092;27;87076;-60
2022/12/03 01:39:35;;;;;;;4.23;2.27;;;;;;;;;;5065030;27;87051;-60
2022/12/03 01:42:04;;;;;;;3.03;2.00;;;;;;;;;;5064122;27;89091;-59
2022/12/03 01:44:32;;;;;;;3.70;2.40;;;;;;;;;;5064338;27;88737;-59
2022/12/03 01:47:02;;;;;;;3.17;1.97;;;;;;;;;;5065385;27;86993;-60
2022/12/03 01:49:32;;;;;;;2.80;1.97;;;;;;;;;;5064785;27;86978;-59
2022/12/03 01:52:00;;;;;;;3.37;1.87;;;;;;;;;;5064755;27;88836;-60
2022/12/03 01:54:29;;;;;;;2.50;1.80;;;;;;;;;;5064760;27;87809;-59
2022/12/03 01:56:57;;;;;;;4.53;2.07;;;;;;;;;;5064698;27;87011;-60
2022/12/03 01:59:32;;;;;;;4.90;2.30;;;;;;;;;;5064818;27;86292;-59
2022/12/03 02:02:02;;;;;;;3.23;2.07;;;;;;;;;;5064546;27;88911;-60
2022/12/03 02:04:30;;;;;;;5.17;2.37;;;;;;;;;;5064863;27;87880;-60
2022/12/03 02:07:14;;;;;;;3.03;1.63;;;;;;;;;;5064404;27;87966;-60
2022/12/03 02:09:42;;;;;;;2.53;1.27;;;;;;;;;;5044730;27;87070;-60
2022/12/03 02:12:10;;;;;;;3.83;1.90;;;;;;;;;;5043923;27;87738;-60
2022/12/03 02:14:38;;;;;;;2.30;2.10;;;;;;;;;;5043717;27;88945;-60
2022/12/03 02:17:08;;;;;;;3.83;2.47;;;;;;;;;;5044465;28;87013;-60
2022/12/03 02:19:36;;;;;;;3.57;2.37;;;;;;;;;;5044364;27;87240;-60
2022/12/03 02:22:06;;;;;;;2.87;1.70;;;;;;;;;;5043660;28;89121;-60
2022/12/03 02:24:39;;;;;;;1.70;1.53;;;;;;;;;;5044410;28;88954;-60
2022/12/03 02:27:09;;;;;;;2.30;1.57;;;;;;;;;;5044001;27;87169;-60
2022/12/03 02:29:37;;;;;;;3.73;2.33;;;;;;;;;;5043434;27;86993;-60
2022/12/03 02:32:05;;;;;;;3.70;2.07;;;;;;;;;;5043578;27;88992;-60
2022/12/03 02:34:37;;;;;;;3.33;2.00;;;;;;;;;;5043410;27;87489;-59
2022/12/03 02:37:06;;;;;;;6.77;1.70;;;;;;;;;;5043968;27;87079;-60
2022/12/03 02:39:35;;;;;;;7.47;2.80;;;;;;;;;;5063654;27;87210;-60
2022/12/03 02:44:50;;;;;;;3.43;2.43;;;;;;;;;;5063917;27;88094;-59
2022/12/03 02:47:19;;;;;;;4.70;2.43;;;;;;;;;;5064280;27;87870;-59
2022/12/03 02:49:47;;;;;;;3.70;2.00;;;;;;;;;;5064443;27;86243;-60
2022/12/03 02:52:16;;;;;;;4.83;2.40;;;;;;;;;;5063757;27;88891;-60
2022/12/03 02:54:44;;;;;;;5.00;2.97;;;;;;;;;;5063946;27;87570;-60
2022/12/03 02:57:12;;;;;;;1.80;1.60;;;;;;;;;;5063451;27;87857;-59
2022/12/03 02:59:40;;;;;;;5.33;2.13;;;;;;;;;;5064126;27;87046;-60
2022/12/03 03:02:11;;;;;;;3.37;2.53;;;;;;;;;;5063534;27;89108;-60
2022/12/03 03:04:39;;;;;;;5.93;2.10;;;;;;;;;;5063382;27;88705;-60
2022/12/03 03:07:07;;;;;;;3.20;2.30;;;;;;;;;;5063916;27;87187;-60
2022/12/03 03:09:36;;;;;;;3.30;2.33;;;;;;;;;;5063499;27;86910;-60
2022/12/03 03:12:04;;;;;;;3.30;2.33;;;;;;;;;;5063252;27;87900;-60
2022/12/03 03:14:32;;;;;;;3.73;2.10;;;;;;;;;;5063889;27;88838;-59
2022/12/03 03:17:01;;;;;;;2.20;1.73;;;;;;;;;;5063634;27;86966;-60
2022/12/03 03:19:30;;;;;;;4.00;1.87;;;;;;;;;;5063445;27;87085;-60
2022/12/03 03:21:58;;;;;;;2.33;1.83;;;;;;;;;;5062673;27;90125;-60
2022/12/03 03:24:27;;;;;;;2.63;1.83;;;;;;;;;;5063332;27;89849;-60
2022/12/03 03:26:55;;;;;;;4.90;2.17;;;;;;;;;;5063561;27;86804;-59
2022/12/03 03:29:23;;;;;;;3.20;1.57;;;;;;;;;;5063505;27;86920;-59
2022/12/03 03:31:51;;;;;;;2.87;1.60;;;;;;;;;;5063162;27;88324;-60
2022/12/03 03:34:20;;;;;;;4.30;2.97;;;;;;;;;;5062231;27;88696;-60
2022/12/03 03:36:49;;;;;;;3.93;2.40;;;;;;;;;;5063023;27;86881;-59
2022/12/03 03:39:18;;;;;;;4.33;2.67;;;;;;;;;;5063278;27;86171;-60
2022/12/03 03:41:46;;;;;;;2.70;2.30;;;;;;;;;;5062808;27;87761;-60
2022/12/03 03:44:14;;;;;;;2.20;2.00;;;;;;;;;;5062607;27;87644;-59
2022/12/03 03:46:42;;;;;;;3.93;2.37;;;;;;;;;;5062753;27;87946;-60
2022/12/03 03:49:11;;;;;;;3.67;2.53;;;;;;;;;;5063456;27;86990;-59
2022/12/03 03:51:39;;;;;;;2.47;2.17;;;;;;;;;;5062900;27;88177;-60
2022/12/03 03:54:09;;;;;;;3.33;2.20;;;;;;;;;;5062849;27;87912;-59
2022/12/03 03:56:37;;;;;;;5.90;1.97;;;;;;;;;;5062741;27;86987;-59
2022/12/03 03:59:05;;;;;;;5.37;2.10;;;;;;;;;;5063344;27;87078;-60
2022/12/03 04:01:34;;;;;;;2.87;1.80;;;;;;;;;;5062502;27;88011;-60
2022/12/03 04:04:02;;;;;;;2.53;2.30;;;;;;;;;;5063302;27;89123;-59
2022/12/03 04:06:30;;;;;;;3.93;1.70;;;;;;;;;;5062877;27;86938;-59
2022/12/03 04:08:59;;;;;;;3.70;2.20;;;;;;;;;;5062518;27;87048;-60
2022/12/03 04:14:14;;;;;;;3.87;2.97;;;;;;;;;;5062349;27;88759;-59
2022/12/03 04:16:42;;;;;;;5.07;1.90;;;;;;;;;;5062815;27;87111;-60
2022/12/03 04:19:11;;;;;;;2.90;1.37;;;;;;;;;;5062522;27;86807;-58
2022/12/03 04:24:25;;;;;;;4.23;2.50;;;;;;;;;;5062193;27;87843;-60
2022/12/03 04:29:40;;;;;;;5.73;3.07;;;;;;;;;;5063198;27;86182;-60
2022/12/03 04:37:41;;;;;;;2.30;2.03;;;;;;;;;;5021338;28;88036;-60
2022/12/03 04:40:59;;;;;;;4.07;2.27;;;;;;;;;;5021761;28;86963;-60
2022/12/03 04:42:59;;;;;;;5.10;2.57;;;;;;;;;;5021789;28;89198;-60
2022/12/03 04:45:28;;;;;;;3.13;2.07;;;;;;;;;;5019709;28;87888;-59
2022/12/03 04:47:56;;;;;;;3.50;2.27;;;;;;;;;;5021845;28;87033;-60
2022/12/03 04:50:24;;;;;;;4.23;2.10;;;;;;;;;;5021343;28;86928;-60
2022/12/03 04:52:53;;;;;;;3.93;2.00;;;;;;;;;;5021490;28;87929;-60
2022/12/03 04:55:21;;;;;;;3.50;1.90;;;;;;;;;;5020886;28;87946;-60
2022/12/03 04:57:49;;;;;;;4.13;2.07;;;;;;;;;;5021403;28;87113;-60
2022/12/03 05:00:19;;;;;;;3.00;2.03;;;;;;;;;;5021525;28;87127;-60
2022/12/03 05:02:47;;;;;;;3.97;2.20;;;;;;;;;;5020833;28;90242;-60
2022/12/03 05:05:16;;;;;;;4.20;1.83;;;;;;;;;;5021319;28;89777;-60
2022/12/03 05:07:44;;;;;;;1.50;1.20;;;;;;;;;;5021704;28;86924;-59
2022/12/03 05:10:13;;;;;;;3.13;1.73;;;;;;;;;;5039088;28;86925;-60
2022/12/03 05:12:41;;;;;;;5.80;2.93;;;;;;;;;;5038639;27;89184;-59
2022/12/03 05:15:10;;;;;;;4.10;1.87;;;;;;;;;;5039482;27;87007;-60
2022/12/03 05:17:39;;;;;;;5.40;2.13;;;;;;;;;;5038563;27;86915;-60
2022/12/03 05:22:57;;;;;;;4.17;2.27;;;;;;;;;;5040716;28;89239;-59
2022/12/03 05:25:25;;;;;;;3.73;2.40;;;;;;;;;;5039947;27;87427;-61
2022/12/03 05:27:53;;;;;;;3.97;2.37;;;;;;;;;;5040323;27;88029;-61
2022/12/03 05:30:22;;;;;;;3.43;2.40;;;;;;;;;;5041504;27;87002;-61
2022/12/03 05:32:52;;;;;;;2.80;1.87;;;;;;;;;;5041069;27;88720;-61
2022/12/03 05:35:20;;;;;;;3.57;2.50;;;;;;;;;;5042046;27;88704;-61
2022/12/03 05:37:48;;;;;;;4.57;2.30;;;;;;;;;;5081857;27;86782;-61
2022/12/03 05:40:16;;;;;;;2.77;2.57;;;;;;;;;;5082231;27;87177;-61
2022/12/03 05:42:53;;;;;;;4.10;2.73;;;;;;;;;;5081368;27;88878;-61
2022/12/03 05:45:21;;;;;;;1.93;1.67;;;;;;;;;;5081892;27;87507;-59
2022/12/03 05:47:49;;;;;;;2.70;2.27;;;;;;;;;;5081918;27;87916;-58
2022/12/03 05:50:19;;;;;;;3.77;2.10;;;;;;;;;;5082109;27;87027;-59
2022/12/03 05:52:48;;;;;;;3.57;2.40;;;;;;;;;;5081008;27;90204;-57
2022/12/03 05:55:16;;;;;;;3.37;2.10;;;;;;;;;;5081335;27;88713;-61
2022/12/03 05:57:44;;;;;;;5.47;2.87;;;;;;;;;;5084882;27;87010;-61
2022/12/03 06:00:13;;;;;;;2.27;1.53;;;;;;;;;;5085610;27;86969;-61
2022/12/03 06:02:42;;;;;;;3.83;1.70;;;;;;;;;;5085525;27;88072;-61
2022/12/03 06:05:10;;;;;;;3.63;2.03;;;;;;;;;;5085471;27;88742;-61
2022/12/03 06:07:40;;;;;;;3.73;1.90;;;;;;;;;;5085343;27;86997;-61
2022/12/03 06:10:10;;;;;;;3.27;2.30;;;;;;;;;;5085470;27;86426;-61
2022/12/03 06:12:38;;;;;;;4.87;2.90;;;;;;;;;;5085121;27;88272;-61
2022/12/03 06:15:08;;;;;;;2.87;1.73;;;;;;;;;;5085160;27;87570;-61
2022/12/03 06:17:37;;;;;;;2.10;1.77;;;;;;;;;;5084881;27;87880;-59
2022/12/03 06:20:05;;;;;;;5.43;2.97;;;;;;;;;;5084807;27;87142;-61
2022/12/03 06:22:34;;;;;;;5.10;2.80;;;;;;;;;;5084804;27;87955;-61
2022/12/03 06:25:03;;;;;;;2.70;1.90;;;;;;;;;;5085001;27;87653;-61
2022/12/03 06:27:34;;;;;;;2.57;1.93;;;;;;;;;;5084932;27;86939;-61
2022/12/03 06:30:02;;;;;;;3.27;2.10;;;;;;;;;;5085351;27;87033;-61
2022/12/03 06:32:31;;;;;;;6.57;2.87;;;;;;;;;;5085004;27;87938;-61
2022/12/03 06:34:59;;;;;;;4.43;1.97;;;;;;;;;;5085321;27;86547;-61
2022/12/03 06:37:27;;;;;;;2.90;2.27;;;;;;;;;;5084553;27;87001;-61
2022/12/03 06:39:56;;;;;;;4.97;2.50;;;;;;;;;;5084801;27;86966;-61
2022/12/03 06:42:25;;;;;;;3.77;1.97;;;;;;;;;;5084454;27;89216;-61
2022/12/03 06:44:53;;;;;;;2.40;1.67;;;;;;;;;;5084455;27;89848;-61
2022/12/03 06:47:22;;;;;;;6.50;2.30;;;;;;;;;;5084645;27;86948;-62
2022/12/03 06:49:50;;;;;;;2.60;1.77;;;;;;;;;;5084489;27;86981;-59
2022/12/03 06:52:19;;;;;;;3.73;2.13;;;;;;;;;;5083945;27;87790;-60
2022/12/03 06:54:47;;;;;;;4.33;3.03;;;;;;;;;;5084441;27;87884;-61
2022/12/03 06:57:15;;;;;;;4.17;2.70;;;;;;;;;;5084637;27;86814;-61
2022/12/03 06:59:45;;;;;;;5.03;2.60;;;;;;;;;;5085047;27;85963;-61
2022/12/03 07:02:13;;;;;;;4.73;2.30;;;;;;;;;;5084517;27;87631;-60
2022/12/03 07:04:41;;;;;;;5.73;2.27;;;;;;;;;;5083894;27;87823;-61
2022/12/03 07:07:13;;;;;;;2.00;1.70;;;;;;;;;;5083639;27;87958;-61
2022/12/03 07:09:42;;;;;;;3.87;2.50;;;;;;;;;;5083955;27;87566;-61
2022/12/03 07:12:10;;;;;;;3.67;2.30;;;;;;;;;;5084225;27;88158;-61
2022/12/03 07:14:38;;;;;;;3.23;2.07;;;;;;;;;;5084038;27;88621;-61
2022/12/03 07:17:08;;;;;;;2.70;1.93;;;;;;;;;;5084302;27;86878;-61
2022/12/03 07:19:36;;;;;;;3.40;1.97;;;;;;;;;;5083867;27;86938;-61
2022/12/03 07:22:04;;;;;;;5.30;2.43;;;;;;;;;;5083540;27;88008;-61
2022/12/03 07:24:33;;;;;;;3.87;2.47;;;;;;;;;;5084630;27;87654;-61
2022/12/03 07:27:01;;;;;;;5.37;1.97;;;;;;;;;;5084166;27;87110;-61
2022/12/03 07:29:29;;;;;;;3.53;2.60;;;;;;;;;;5083613;27;87898;-60
2022/12/03 07:31:58;;;;;;;3.37;2.03;;;;;;;;;;5083090;27;89145;-61
2022/12/03 07:34:27;;;;;;;2.63;1.83;;;;;;;;;;5083811;27;88493;-61
2022/12/03 07:36:56;;;;;;;4.50;2.00;;;;;;;;;;5083037;27;86707;-61
2022/12/03 07:39:24;;;;;;;2.93;1.93;;;;;;;;;;5083641;27;87006;-61
2022/12/03 07:41:52;;;;;;;5.87;2.97;;;;;;;;;;5083679;27;88291;-61
2022/12/03 07:44:21;;;;;;;2.47;1.47;;;;;;;;;;5083039;27;87948;-60
2022/12/03 07:46:49;;;;;;;5.37;3.30;;;;;;;;;;5083772;27;87027;-61
2022/12/03 07:49:17;;;;;;;3.27;2.50;;;;;;;;;;5083543;27;86344;-60
2022/12/03 07:51:52;;;;;;;3.57;1.80;;;;;;;;;;5082846;27;88261;-61
2022/12/03 07:54:21;;;;;;;4.03;1.87;;;;;;;;;;5083428;27;88805;-61
2022/12/03 07:56:49;;;;;;;4.37;1.90;;;;;;;;;;5082917;27;87975;-61
2022/12/03 07:59:17;;;;;;;3.10;1.67;;;;;;;;;;5083512;27;87134;-61
2022/12/03 08:01:46;;;;;;;3.23;2.30;;;;;;;;;;5083489;27;88249;-61
2022/12/03 08:04:17;;;;;;;4.03;1.73;;;;;;;;;;5083305;27;87391;-61
2022/12/03 08:06:47;;;;;;;4.30;2.23;;;;;;;;;;5083234;27;86822;-61
2022/12/03 08:09:15;;;;;;;2.30;1.93;;;;;;;;;;5082856;27;87132;-60
2022/12/03 08:11:44;;;;;;;2.80;1.97;;;;;;;;;;5082872;27;88188;-60
2022/12/03 08:14:12;;;;;;;3.07;2.13;;;;;;;;;;5083759;27;88938;-60
2022/12/03 08:16:41;;;;;;;5.57;2.63;;;;;;;;;;5083459;27;86997;-61
2022/12/03 08:19:10;;;;;;;4.17;2.53;;;;;;;;;;5082703;27;87028;-60
2022/12/03 08:21:38;;;;;;;3.50;2.03;;;;;;;;;;5082198;27;90036;-61
2022/12/03 08:24:12;;;;;;;5.43;2.57;;;;;;;;;;5082704;27;88480;-61
2022/12/03 08:26:41;;;;;;;2.30;1.97;;;;;;;;;;5082863;27;87135;-61
2022/12/03 08:29:09;;;;;;;2.63;1.90;;;;;;;;;;5082967;27;87511;-61
2022/12/03 08:31:37;;;;;;;5.40;2.73;;;;;;;;;;5082698;27;89282;-60
2022/12/03 08:34:16;;;;;;;2.73;2.47;;;;;;;;;;5082813;27;87775;-60
2022/12/03 08:36:44;;;;;;;3.57;1.93;;;;;;;;;;5082521;27;87061;-61
2022/12/03 08:39:27;;;;;;;5.00;2.63;;;;;;;;;;5082886;27;86446;-60
2022/12/03 08:44:41;;;;;;;3.33;2.63;;;;;;;;;;5082597;27;87779;-60
2022/12/03 08:47:12;;;;;;;2.30;1.40;;;;;;;;;;5082158;27;87933;-61
2022/12/03 08:49:40;;;;;;;2.93;2.10;;;;;;;;;;5082292;27;87146;-60
2022/12/03 08:52:11;;;;;;;4.60;1.67;;;;;;;;;;5082230;27;89234;-61
2022/12/03 08:54:41;;;;;;;3.87;2.10;;;;;;;;;;5082613;27;88496;-61
2022/12/03 08:57:20;;;;;;;1.97;1.60;;;;;;;;;;5082849;27;86929;-61
2022/12/03 08:59:48;;;;;;;2.10;1.77;;;;;;;;;;5082838;27;87024;-61
2022/12/03 09:02:19;;;;;;;2.97;2.40;;;;;;;;;;5082585;27;89340;-61
2022/12/03 09:04:47;;;;;;;2.30;1.63;;;;;;;;;;5082291;27;87731;-61
2022/12/03 09:07:15;;;;;;;4.10;2.17;;;;;;;;;;5082359;27;87072;-61
2022/12/03 09:09:45;;;;;;;4.03;2.27;;;;;;;;;;5082792;27;86912;-62
2022/12/03 09:12:13;;;;;;;2.67;2.40;;;;;;;;;;5081353;27;90058;-61
2022/12/03 09:14:41;;;;;;;3.47;2.23;;;;;;;;;;5082199;27;89731;-61
2022/12/03 09:17:10;;;;;;;2.97;2.00;;;;;;;;;;5082169;27;86930;-60
2022/12/03 09:19:43;;;;;;;1.97;1.83;;;;;;;;;;5081276;27;87445;-62
2022/12/03 09:22:16;;;;;;;5.30;2.67;;;;;;;;;;5081278;27;88007;-60
2022/12/03 09:24:45;;;;;;;3.30;2.37;;;;;;;;;;5081481;27;87585;-60
2022/12/03 09:27:14;;;;;;;3.27;1.77;;;;;;;;;;5082306;27;87654;-61
2022/12/03 09:29:42;;;;;;;4.27;2.20;;;;;;;;;;5082805;27;86156;-61
2022/12/03 09:32:10;;;;;;;3.47;1.77;;;;;;;;;;5084611;27;88065;-61
2022/12/03 09:34:45;;;;;;;3.57;2.57;;;;;;;;;;5085053;27;87716;-60
2022/12/03 09:37:13;;;;;;;3.47;2.13;;;;;;;;;;5083965;27;87967;-61
2022/12/03 09:39:42;;;;;;;4.43;2.30;;;;;;;;;;5085195;27;87005;-60
2022/12/03 09:42:11;;;;;;;4.80;2.40;;;;;;;;;;5085017;27;88996;-61
2022/12/03 09:44:40;;;;;;;1.77;1.67;;;;;;;;;;5085644;27;88899;-61
2022/12/03 09:47:08;;;;;;;7.27;2.37;;;;;;;;;;5086236;27;86990;-61
2022/12/03 09:49:36;;;;;;;4.23;1.77;;;;;;;;;;5085441;27;87218;-61
2022/12/03 09:52:05;;;;;;;5.37;2.57;;;;;;;;;;5085039;27;88124;-61
2022/12/03 09:54:33;;;;;;;3.30;1.83;;;;;;;;;;5085671;27;87789;-61
2022/12/03 09:57:02;;;;;;;3.57;2.87;;;;;;;;;;5084966;27;87004;-61
2022/12/03 09:59:32;;;;;;;3.67;2.50;;;;;;;;;;5085531;27;86997;-61
2022/12/03 10:02:00;;;;;;;4.17;2.70;;;;;;;;;;5084877;27;88292;-61
2022/12/03 10:04:29;;;;;;;5.07;3.10;;;;;;;;;;5084918;27;89743;-61
2022/12/03 10:06:57;;;;;;;4.33;2.13;;;;;;;;;;5085115;27;87013;-60
2022/12/03 10:09:26;;;;;;;8.03;2.43;;;;;;;;;;5084351;27;87078;-60
2022/12/03 10:11:55;;;;;;;3.00;2.07;;;;;;;;;;5084897;27;87768;-61
2022/12/03 10:14:23;;;;;;;1.90;1.67;;;;;;;;;;5084787;27;87914;-61
2022/12/03 10:16:53;;;;;;;4.53;1.97;;;;;;;;;;5085425;27;86976;-60
2022/12/03 10:19:22;;;;;;;1.97;1.80;;;;;;;;;;5085582;27;86317;-61
2022/12/03 10:21:51;;;;;;;2.77;1.70;;;;;;;;;;5084036;27;87004;-61
2022/12/03 10:24:20;;;;;;;4.73;2.13;;;;;;;;;;5085192;27;87617;-60
2022/12/03 10:26:49;;;;;;;2.10;1.63;;;;;;;;;;5084550;27;87915;-61
2022/12/03 10:29:18;;;;;;;4.40;2.13;;;;;;;;;;5084571;27;87064;-61
2022/12/03 10:31:46;;;;;;;5.73;2.30;;;;;;;;;;5084303;27;89162;-61
2022/12/03 10:34:19;;;;;;;3.67;2.10;;;;;;;;;;5084259;27;87767;-61
2022/12/03 10:36:47;;;;;;;2.53;2.07;;;;;;;;;;5084666;27;87041;-61
2022/12/03 10:39:16;;;;;;;3.47;2.07;;;;;;;;;;5081407;27;86889;-60
2022/12/03 10:41:45;;;;;;;3.50;1.57;;;;;;;;;;5084812;27;88072;-61
2022/12/03 10:44:15;;;;;;;3.60;2.03;;;;;;;;;;5083846;27;87692;-61
2022/12/03 10:46:43;;;;;;;2.73;1.97;;;;;;;;;;5084785;27;86943;-61
2022/12/03 10:49:14;;;;;;;2.43;1.90;;;;;;;;;;5084584;27;86976;-61
2022/12/03 10:51:44;;;;;;;5.00;1.90;;;;;;;;;;5084415;27;88784;-61
2022/12/03 10:54:15;;;;;;;3.13;1.63;;;;;;;;;;5084024;27;88820;-62
2022/12/03 10:56:43;;;;;;;2.93;1.83;;;;;;;;;;5084222;27;86943;-61
2022/12/03 10:59:13;;;;;;;3.77;2.20;;;;;;;;;;5083978;27;87055;-61
2022/12/03 11:01:42;;;;;;;4.80;2.53;;;;;;;;;;5083705;27;89140;-61
2022/12/03 11:04:14;;;;;;;2.70;1.60;;;;;;;;;;5083783;27;87704;-60
2022/12/03 11:06:42;;;;;;;3.97;1.83;;;;;;;;;;5084025;27;87116;-61
2022/12/03 11:09:14;;;;;;;3.53;2.60;;;;;;;;;;5084773;27;86233;-60
2022/12/03 11:11:42;;;;;;;3.73;2.40;;;;;;;;;;5084402;27;89140;-61
2022/12/03 11:14:11;;;;;;;2.73;1.87;;;;;;;;;;5083570;27;88799;-61
2022/12/03 11:17:05;;;;;;;3.37;1.80;;;;;;;;;;5083715;27;87683;-61
2022/12/03 11:19:49;;;;;;;2.63;1.43;;;;;;;;;;5079245;27;88031;-61
2022/12/03 11:22:30;;;;;;;5.70;2.27;;;;;;;;;;5083763;27;89015;-61
2022/12/03 11:25:17;;;;;;;4.13;2.27;;;;;;;;;;5084104;27;87611;-62
2022/12/03 11:27:46;;;;;;;3.40;2.43;;;;;;;;;;5083643;27;87015;-61
2022/12/03 11:30:21;;;;;;;2.33;1.97;;;;;;;;;;5083688;27;86989;-60
2022/12/03 11:33:05;;;;;;;2.77;2.50;;;;;;;;;;5083206;27;88212;-60
2022/12/03 11:36:03;;;;;;;5.30;2.33;;;;;;;;;;5083167;27;87747;-60
2022/12/03 11:38:43;;;;;;;3.50;2.63;;;;;;;;;;5083565;27;87194;-60
2022/12/03 11:41:20;;;;;;;2.50;2.13;;;;;;;;;;5083283;27;87053;-60
2022/12/03 11:43:59;;;;;;;3.67;3.07;;;;;;;;;;5083218;27;90062;-61
2022/12/03 11:46:28;;;;;;;6.63;2.20;;;;;;;;;;5083754;27;88430;-62
2022/12/03 11:48:57;;;;;;;4.93;2.93;;;;;;;;;;5083715;27;86833;-61
2022/12/03 11:51:25;;;;;;;4.07;2.83;;;;;;;;;;5083179;27;86913;-61
2022/12/03 11:53:54;;;;;;;4.83;2.53;;;;;;;;;;5082632;27;91207;-61
2022/12/03 11:56:23;;;;;;;5.40;2.53;;;;;;;;;;5083143;27;87598;-61
2022/12/03 11:58:59;;;;;;;5.17;2.77;;;;;;;;;;5083355;27;86968;-61
2022/12/03 12:01:34;;;;;;;4.70;3.10;;;;;;;;;;5083807;27;86312;-61
2022/12/03 12:04:06;;;;;;;2.90;2.70;;;;;;;;;;5083405;27;88026;-61
2022/12/03 12:06:40;;;;;;;3.80;2.80;;;;;;;;;;5083404;27;87722;-61
2022/12/03 12:09:09;;;;;;;8.53;3.10;;;;;;;;;;5082994;27;88875;-62
2022/12/03 12:11:39;;;;;;;4.73;2.87;;;;;;;;;;5083274;27;86980;-61
2022/12/03 12:14:08;;;;;;;3.93;2.43;;;;;;;;;;5083310;27;86875;-61
2022/12/03 12:16:38;;;;;;;6.23;2.23;;;;;;;;;;5082978;27;87851;-61
2022/12/03 12:19:24;;;;;;;5.30;2.47;;;;;;;;;;5083588;27;86867;-60
2022/12/03 12:21:53;;;;;;;3.90;2.60;;;;;;;;;;5082683;27;87176;-61
2022/12/03 12:24:37;;;;;;;4.07;2.63;;;;;;;;;;5083122;27;87650;-61
2022/12/03 12:27:06;;;;;;;4.27;2.63;;;;;;;;;;5083226;27;88566;-61
2022/12/03 12:29:35;;;;;;;4.83;2.53;;;;;;;;;;5082703;27;86945;-59
2022/12/03 12:32:19;;;;;;;3.73;2.57;;;;;;;;;;5059323;27;87022;-61
2022/12/03 12:34:47;;;;;;;7.00;3.60;;;;;;;;;;5082218;27;88402;-61
2022/12/03 12:37:19;;;;;;;7.97;4.03;;;;;;;;;;5081833;27;89165;-60
2022/12/03 12:39:48;;;;;;;5.43;2.80;;;;;;;;;;5082791;27;87037;-61
2022/12/03 12:42:34;;;;;;;9.27;3.30;;;;;;;;;;5082922;27;87019;-60
2022/12/03 12:45:09;;;;;;;5.00;3.10;;;;;;;;;;5082705;27;88255;-60
2022/12/03 12:47:38;;;;;;;4.13;3.13;;;;;;;;;;5082950;27;88882;-61
2022/12/03 12:50:09;;;;;;;4.90;2.27;;;;;;;;;;5082773;27;86929;-60
2022/12/03 12:52:37;;;;;;;9.77;3.27;;;;;;;;;;5083252;27;86302;-61
2022/12/03 12:55:07;;;;;;;8.37;2.80;;;;;;;;;;5082606;27;88016;-61
2022/12/03 12:57:35;;;;;;;6.53;3.30;;;;;;;;;;5082507;27;86991;-62
2022/12/03 13:00:04;;;;;;;6.43;2.87;;;;;;;;;;5082366;27;87857;-61
2022/12/03 13:02:41;;;;;;;7.13;3.93;;;;;;;;;;5082504;27;86944;-61
2022/12/03 13:05:11;;;;;;;5.60;3.30;;;;;;;;;;5082245;27;89135;-60
2022/12/03 13:07:39;;;;;;;4.73;2.60;;;;;;;;;;5081981;27;87641;-60
2022/12/03 13:10:26;;;;;;;8.70;4.17;;;;;;;;;;5082698;27;86964;-61
2022/12/03 13:12:55;;;;;;;6.17;3.13;;;;;;;;;;5082054;27;86910;-61
2022/12/03 13:15:33;;;;;;;4.90;3.17;;;;;;;;;;5082138;27;88201;-60
2022/12/03 13:18:03;;;;;;;6.13;2.77;;;;;;;;;;5082833;27;87587;-60
2022/12/03 13:20:31;;;;;;;5.50;3.33;;;;;;;;;;5081507;27;86905;-61
2022/12/03 13:22:59;;;;;;;7.70;3.13;;;;;;;;;;5082451;27;86859;-60
2022/12/03 13:25:32;;;;;;;7.60;3.23;;;;;;;;;;5082015;27;90156;-61
2022/12/03 13:28:20;;;;;;;11.17;3.87;;;;;;;;;;5081514;27;88504;-61
2022/12/03 13:30:49;;;;;;;6.83;3.87;;;;;;;;;;5082261;27;87069;-61
2022/12/03 13:33:24;;;;;;;7.57;3.17;;;;;;;;;;5082084;27;86920;-61
2022/12/03 13:35:54;;;;;;;7.73;3.30;;;;;;;;;;5081212;27;87952;-60
2022/12/03 13:38:23;;;;;;;5.90;3.00;;;;;;;;;;5081133;27;87702;-61
2022/12/03 13:40:58;;;;;;;5.73;2.97;;;;;;;;;;5082010;27;86946;-61
2022/12/03 13:43:29;;;;;;;7.87;2.93;;;;;;;;;;5081950;27;86421;-61
2022/12/03 13:45:58;;;;;;;4.60;2.77;;;;;;;;;;5081451;27;87900;-61
2022/12/03 13:48:29;;;;;;;6.63;3.10;;;;;;;;;;5081391;27;87907;-60
2022/12/03 13:50:57;;;;;;;9.97;3.53;;;;;;;;;;5080795;27;88014;-61
2022/12/03 13:53:26;;;;;;;7.53;3.20;;;;;;;;;;5081360;27;87045;-61
2022/12/03 13:55:56;;;;;;;9.17;3.90;;;;;;;;;;5081583;27;87004;-61
2022/12/03 13:58:24;;;;;;;6.43;3.47;;;;;;;;;;5081329;27;88848;-61
2022/12/03 14:00:52;;;;;;;4.53;2.93;;;;;;;;;;5081573;27;86956;-60
2022/12/03 14:03:22;;;;;;;5.90;3.80;;;;;;;;;;5080499;27;87522;-61
2022/12/03 14:05:51;;;;;;;7.20;3.53;;;;;;;;;;5077933;27;89304;-61
2022/12/03 14:08:20;;;;;;;6.00;3.03;;;;;;;;;;5060177;27;88988;-61
2022/12/03 14:10:48;;;;;;;6.03;3.13;;;;;;;;;;5060087;27;88117;-60
2022/12/03 14:13:19;;;;;;;10.03;3.53;;;;;;;;;;5060079;27;87002;-61
2022/12/03 14:15:47;;;;;;;8.23;3.33;;;;;;;;;;5059751;27;88995;-61
2022/12/03 14:18:15;;;;;;;6.33;2.97;;;;;;;;;;5063278;27;88769;-61
2022/12/03 14:20:44;;;;;;;7.73;3.40;;;;;;;;;;5062938;27;87008;-60
2022/12/03 14:23:13;;;;;;;5.17;2.93;;;;;;;;;;5064297;27;87036;-60
2022/12/03 14:25:42;;;;;;;6.53;2.87;;;;;;;;;;5063361;27;89023;-61
2022/12/03 14:28:11;;;;;;;6.93;2.97;;;;;;;;;;5063278;27;87984;-61
2022/12/03 14:30:39;;;;;;;6.07;2.70;;;;;;;;;;5064191;27;87148;-60
2022/12/03 14:33:07;;;;;;;7.53;3.37;;;;;;;;;;5064999;27;86138;-61
2022/12/03 14:35:36;;;;;;;7.33;2.97;;;;;;;;;;5063027;27;88863;-60
2022/12/03 14:38:04;;;;;;;6.97;4.53;;;;;;;;;;5063362;27;88854;-61
2022/12/03 14:40:33;;;;;;;4.53;3.07;;;;;;;;;;5062514;27;88115;-61
2022/12/03 14:43:02;;;;;;;7.53;3.73;;;;;;;;;;5064052;27;87290;-61
2022/12/03 14:45:30;;;;;;;5.93;3.40;;;;;;;;;;5063099;27;89225;-61
2022/12/03 14:47:59;;;;;;;7.77;3.50;;;;;;;;;;5063677;27;87713;-60
2022/12/03 14:50:27;;;;;;;7.50;3.00;;;;;;;;;;5063760;27;87051;-61
2022/12/03 14:52:56;;;;;;;7.63;3.60;;;;;;;;;;5062723;27;87593;-60
2022/12/03 14:55:24;;;;;;;5.73;3.17;;;;;;;;;;5063999;27;88894;-61
2022/12/03 14:57:53;;;;;;;6.67;3.60;;;;;;;;;;5063164;27;87816;-61
2022/12/03 15:00:22;;;;;;;6.23;4.23;;;;;;;;;;5062476;27;87166;-60
2022/12/03 15:02:50;;;;;;;6.20;4.07;;;;;;;;;;5061788;27;87179;-60
2022/12/03 15:05:20;;;;;;;7.30;3.73;;;;;;;;;;5060463;27;89993;-60
2022/12/03 15:07:55;;;;;;;3.73;3.37;;;;;;;;;;5065462;27;88754;-61
2022/12/03 15:10:24;;;;;;;6.23;4.10;;;;;;;;;;5082789;27;87075;-61
2022/12/03 15:12:53;;;;;;;5.07;3.07;;;;;;;;;;5083266;27;87110;-61
2022/12/03 15:15:22;;;;;;;6.87;4.63;;;;;;;;;;5059146;27;88351;-61
2022/12/03 15:17:50;;;;;;;9.70;3.90;;;;;;;;;;5060143;27;88615;-61
2022/12/03 15:20:18;;;;;;;9.23;4.27;;;;;;;;;;5064173;27;87050;-60
2022/12/03 15:22:47;;;;;;;7.87;3.97;;;;;;;;;;5070099;27;86177;-60